sensor_id;sensor_type;location;lat;lon;timestamp;P1;durP1;ratioP1;P2;durP2;ratioP2
40609;SDS011;26316;55.976;37.140;2022-08-20T00:02:18;8.32;;;5.20;;
40609;SDS011;26316;55.976;37.140;2022-08-20T00:04:44;10.85;;;5.05;;
40609;SDS011;26316;55.976;37.140;2022-08-20T00:07:11;9.68;;;5.32;;
40609;SDS011;26316;55.976;37.140;2022-08-20T00:09:38;11.85;;;4.93;;
40609;SDS011;26316;55.976;37.140;2022-08-20T00:12:06;9.90;;;5.47;;
40609;SDS011;26316;55.976;37.140;2022-08-20T00:14:35;13.35;;;5.50;;
40609;SDS011;26316;55.976;37.140;2022-08-20T00:17:01;14.35;;;5.55;;
40609;SDS011;26316;55.976;37.140;2022-08-20T00:19:27;9.90;;;5.85;;
40609;SDS011;26316;55.976;37.140;2022-08-20T00:21:53;15.25;;;5.95;;
40609;SDS011;26316;55.976;37.140;2022-08-20T00:24:19;13.07;;;6.53;;
40609;SDS011;26316;55.976;37.140;2022-08-20T00:26:45;15.40;;;6.88;;
40609;SDS011;26316;55.976;37.140;2022-08-20T00:29:10;11.05;;;6.47;;
40609;SDS011;26316;55.976;37.140;2022-08-20T00:31:37;10.75;;;6.88;;
40609;SDS011;26316;55.976;37.140;2022-08-20T00:34:03;9.95;;;6.45;;
40609;SDS011;26316;55.976;37.140;2022-08-20T00:36:28;14.75;;;7.13;;
40609;SDS011;26316;55.976;37.140;2022-08-20T00:38:54;12.27;;;7.55;;
40609;SDS011;26316;55.976;37.140;2022-08-20T00:41:22;13.95;;;7.05;;
40609;SDS011;26316;55.976;37.140;2022-08-20T00:43:51;10.88;;;7.72;;
40609;SDS011;26316;55.976;37.140;2022-08-20T00:46:29;16.55;;;7.95;;
40609;SDS011;26316;55.976;37.140;2022-08-20T00:48:56;15.32;;;7.97;;
40609;SDS011;26316;55.976;37.140;2022-08-20T00:54:09;15.88;;;8.18;;
40609;SDS011;26316;55.976;37.140;2022-08-20T00:56:39;13.60;;;8.70;;
40609;SDS011;26316;55.976;37.140;2022-08-20T00:59:09;16.67;;;8.30;;
40609;SDS011;26316;55.976;37.140;2022-08-20T01:01:39;17.15;;;8.45;;
40609;SDS011;26316;55.976;37.140;2022-08-20T01:04:06;13.45;;;8.38;;
40609;SDS011;26316;55.976;37.140;2022-08-20T01:06:31;15.20;;;8.40;;
40609;SDS011;26316;55.976;37.140;2022-08-20T01:08:57;18.20;;;9.02;;
40609;SDS011;26316;55.976;37.140;2022-08-20T01:11:27;13.38;;;9.23;;
40609;SDS011;26316;55.976;37.140;2022-08-20T01:13:59;14.65;;;8.82;;
40609;SDS011;26316;55.976;37.140;2022-08-20T01:16:27;13.70;;;9.77;;
40609;SDS011;26316;55.976;37.140;2022-08-20T01:18:56;16.30;;;9.32;;
40609;SDS011;26316;55.976;37.140;2022-08-20T01:21:23;15.00;;;9.10;;
40609;SDS011;26316;55.976;37.140;2022-08-20T01:26:59;17.50;;;8.10;;
40609;SDS011;26316;55.976;37.140;2022-08-20T01:29:27;18.23;;;10.43;;
40609;SDS011;26316;55.976;37.140;2022-08-20T01:32:02;17.75;;;11.25;;
40609;SDS011;26316;55.976;37.140;2022-08-20T01:34:28;20.17;;;10.65;;
40609;SDS011;26316;55.976;37.140;2022-08-20T01:36:55;21.50;;;10.30;;
40609;SDS011;26316;55.976;37.140;2022-08-20T01:39:25;17.38;;;10.20;;
40609;SDS011;26316;55.976;37.140;2022-08-20T01:41:56;15.93;;;9.60;;
40609;SDS011;26316;55.976;37.140;2022-08-20T01:44:25;17.08;;;10.25;;
40609;SDS011;26316;55.976;37.140;2022-08-20T01:46:51;15.90;;;10.57;;
40609;SDS011;26316;55.976;37.140;2022-08-20T01:49:21;19.35;;;10.63;;
40609;SDS011;26316;55.976;37.140;2022-08-20T01:51:54;16.05;;;10.15;;
40609;SDS011;26316;55.976;37.140;2022-08-20T01:54:21;20.73;;;9.85;;
40609;SDS011;26316;55.976;37.140;2022-08-20T01:59:37;17.73;;;10.45;;
40609;SDS011;26316;55.976;37.140;2022-08-20T02:02:04;15.45;;;10.27;;
40609;SDS011;26316;55.976;37.140;2022-08-20T02:04:31;19.52;;;10.98;;
40609;SDS011;26316;55.976;37.140;2022-08-20T02:06:59;23.00;;;11.32;;
40609;SDS011;26316;55.976;37.140;2022-08-20T02:09:31;20.05;;;10.15;;
40609;SDS011;26316;55.976;37.140;2022-08-20T02:12:02;20.83;;;10.00;;
40609;SDS011;26316;55.976;37.140;2022-08-20T02:14:30;16.17;;;8.90;;
40609;SDS011;26316;55.976;37.140;2022-08-20T02:16:56;16.90;;;9.45;;
40609;SDS011;26316;55.976;37.140;2022-08-20T02:22:13;17.00;;;10.02;;
40609;SDS011;26316;55.976;37.140;2022-08-20T02:24:42;15.10;;;10.23;;
40609;SDS011;26316;55.976;37.140;2022-08-20T02:27:08;15.98;;;10.15;;
40609;SDS011;26316;55.976;37.140;2022-08-20T02:29:34;16.38;;;10.25;;
40609;SDS011;26316;55.976;37.140;2022-08-20T02:32:00;17.90;;;9.82;;
40609;SDS011;26316;55.976;37.140;2022-08-20T02:34:26;16.45;;;10.23;;
40609;SDS011;26316;55.976;37.140;2022-08-20T02:36:52;18.75;;;10.38;;
40609;SDS011;26316;55.976;37.140;2022-08-20T02:39:18;18.50;;;10.07;;
40609;SDS011;26316;55.976;37.140;2022-08-20T02:41:44;17.15;;;10.15;;
40609;SDS011;26316;55.976;37.140;2022-08-20T02:44:10;13.65;;;9.85;;
40609;SDS011;26316;55.976;37.140;2022-08-20T02:46:36;22.48;;;10.98;;
40609;SDS011;26316;55.976;37.140;2022-08-20T02:49:03;20.02;;;10.30;;
40609;SDS011;26316;55.976;37.140;2022-08-20T02:51:28;17.88;;;9.73;;
40609;SDS011;26316;55.976;37.140;2022-08-20T02:53:54;16.00;;;9.80;;
40609;SDS011;26316;55.976;37.140;2022-08-20T02:56:20;20.17;;;11.07;;
40609;SDS011;26316;55.976;37.140;2022-08-20T02:58:46;18.52;;;10.05;;
40609;SDS011;26316;55.976;37.140;2022-08-20T03:01:13;19.13;;;10.20;;
40609;SDS011;26316;55.976;37.140;2022-08-20T03:03:40;21.00;;;10.77;;
40609;SDS011;26316;55.976;37.140;2022-08-20T03:06:07;15.48;;;9.77;;
40609;SDS011;26316;55.976;37.140;2022-08-20T03:08:35;17.83;;;9.95;;
40609;SDS011;26316;55.976;37.140;2022-08-20T03:11:01;16.02;;;9.68;;
40609;SDS011;26316;55.976;37.140;2022-08-20T03:13:28;17.10;;;9.40;;
40609;SDS011;26316;55.976;37.140;2022-08-20T03:15:55;16.35;;;9.90;;
40609;SDS011;26316;55.976;37.140;2022-08-20T03:18:23;14.43;;;9.38;;
40609;SDS011;26316;55.976;37.140;2022-08-20T03:20:50;17.75;;;8.98;;
40609;SDS011;26316;55.976;37.140;2022-08-20T03:23:17;12.90;;;9.30;;
40609;SDS011;26316;55.976;37.140;2022-08-20T03:25:44;15.00;;;8.38;;
40609;SDS011;26316;55.976;37.140;2022-08-20T03:28:10;17.40;;;8.20;;
40609;SDS011;26316;55.976;37.140;2022-08-20T03:30:37;14.82;;;8.90;;
40609;SDS011;26316;55.976;37.140;2022-08-20T03:33:04;13.68;;;9.68;;
40609;SDS011;26316;55.976;37.140;2022-08-20T03:35:30;12.43;;;8.73;;
40609;SDS011;26316;55.976;37.140;2022-08-20T03:37:57;16.00;;;8.60;;
40609;SDS011;26316;55.976;37.140;2022-08-20T03:40:28;15.70;;;9.30;;
40609;SDS011;26316;55.976;37.140;2022-08-20T03:42:56;12.48;;;8.35;;
40609;SDS011;26316;55.976;37.140;2022-08-20T03:45:23;21.15;;;9.65;;
40609;SDS011;26316;55.976;37.140;2022-08-20T03:47:49;15.93;;;9.32;;
40609;SDS011;26316;55.976;37.140;2022-08-20T03:50:19;15.35;;;10.48;;
40609;SDS011;26316;55.976;37.140;2022-08-20T03:55:15;22.35;;;12.20;;
40609;SDS011;26316;55.976;37.140;2022-08-20T03:57:45;18.75;;;11.23;;
40609;SDS011;26316;55.976;37.140;2022-08-20T04:00:14;26.25;;;12.38;;
40609;SDS011;26316;55.976;37.140;2022-08-20T04:05:09;19.35;;;12.57;;
40609;SDS011;26316;55.976;37.140;2022-08-20T04:07:37;17.63;;;12.43;;
40609;SDS011;26316;55.976;37.140;2022-08-20T04:10:07;27.73;;;14.70;;
40609;SDS011;26316;55.976;37.140;2022-08-20T04:12:37;19.80;;;14.55;;
40609;SDS011;26316;55.976;37.140;2022-08-20T04:15:11;22.25;;;14.30;;
40609;SDS011;26316;55.976;37.140;2022-08-20T04:17:40;20.00;;;13.93;;
40609;SDS011;26316;55.976;37.140;2022-08-20T04:20:08;18.27;;;13.70;;
40609;SDS011;26316;55.976;37.140;2022-08-20T04:22:36;19.65;;;14.55;;
40609;SDS011;26316;55.976;37.140;2022-08-20T04:25:05;24.30;;;14.52;;
40609;SDS011;26316;55.976;37.140;2022-08-20T04:27:35;21.38;;;13.88;;
40609;SDS011;26316;55.976;37.140;2022-08-20T04:30:02;21.20;;;13.75;;
40609;SDS011;26316;55.976;37.140;2022-08-20T04:32:29;22.88;;;13.30;;
40609;SDS011;26316;55.976;37.140;2022-08-20T04:34:57;22.15;;;13.45;;
40609;SDS011;26316;55.976;37.140;2022-08-20T04:37:25;22.98;;;12.73;;
40609;SDS011;26316;55.976;37.140;2022-08-20T04:39:50;23.30;;;14.07;;
40609;SDS011;26316;55.976;37.140;2022-08-20T04:42:36;18.40;;;12.13;;
40609;SDS011;26316;55.976;37.140;2022-08-20T04:45:03;18.75;;;12.27;;
40609;SDS011;26316;55.976;37.140;2022-08-20T04:47:31;16.58;;;12.02;;
40609;SDS011;26316;55.976;37.140;2022-08-20T04:49:58;18.77;;;12.57;;
40609;SDS011;26316;55.976;37.140;2022-08-20T04:52:27;20.75;;;12.93;;
40609;SDS011;26316;55.976;37.140;2022-08-20T04:54:55;19.58;;;11.68;;
40609;SDS011;26316;55.976;37.140;2022-08-20T04:57:23;17.83;;;11.70;;
40609;SDS011;26316;55.976;37.140;2022-08-20T04:59:52;15.98;;;10.50;;
40609;SDS011;26316;55.976;37.140;2022-08-20T05:02:18;20.65;;;11.35;;
40609;SDS011;26316;55.976;37.140;2022-08-20T05:04:44;16.17;;;10.75;;
40609;SDS011;26316;55.976;37.140;2022-08-20T05:07:12;16.77;;;10.20;;
40609;SDS011;26316;55.976;37.140;2022-08-20T05:09:40;15.63;;;9.63;;
40609;SDS011;26316;55.976;37.140;2022-08-20T05:12:07;14.30;;;9.98;;
40609;SDS011;26316;55.976;37.140;2022-08-20T05:14:33;15.57;;;9.50;;
40609;SDS011;26316;55.976;37.140;2022-08-20T05:17:05;15.07;;;9.30;;
40609;SDS011;26316;55.976;37.140;2022-08-20T05:19:32;13.15;;;8.77;;
40609;SDS011;26316;55.976;37.140;2022-08-20T05:21:59;21.45;;;9.07;;
40609;SDS011;26316;55.976;37.140;2022-08-20T05:24:25;14.00;;;8.35;;
40609;SDS011;26316;55.976;37.140;2022-08-20T05:26:51;23.98;;;7.85;;
40609;SDS011;26316;55.976;37.140;2022-08-20T05:29:19;25.10;;;8.68;;
40609;SDS011;26316;55.976;37.140;2022-08-20T05:31:47;10.93;;;8.10;;
40609;SDS011;26316;55.976;37.140;2022-08-20T05:34:14;10.70;;;7.47;;
40609;SDS011;26316;55.976;37.140;2022-08-20T05:36:44;13.18;;;7.28;;
40609;SDS011;26316;55.976;37.140;2022-08-20T05:39:15;12.30;;;7.00;;
40609;SDS011;26316;55.976;37.140;2022-08-20T05:41:42;18.38;;;7.60;;
40609;SDS011;26316;55.976;37.140;2022-08-20T05:44:08;11.90;;;6.78;;
40609;SDS011;26316;55.976;37.140;2022-08-20T05:46:38;13.40;;;6.60;;
40609;SDS011;26316;55.976;37.140;2022-08-20T05:49:05;12.93;;;6.10;;
40609;SDS011;26316;55.976;37.140;2022-08-20T05:51:32;10.48;;;5.47;;
40609;SDS011;26316;55.976;37.140;2022-08-20T05:54:01;16.17;;;6.60;;
40609;SDS011;26316;55.976;37.140;2022-08-20T05:56:28;10.32;;;5.82;;
40609;SDS011;26316;55.976;37.140;2022-08-20T05:58:55;7.90;;;5.35;;
40609;SDS011;26316;55.976;37.140;2022-08-20T06:01:21;11.50;;;5.70;;
40609;SDS011;26316;55.976;37.140;2022-08-20T06:03:46;12.95;;;6.22;;
40609;SDS011;26316;55.976;37.140;2022-08-20T06:06:31;12.15;;;6.00;;
40609;SDS011;26316;55.976;37.140;2022-08-20T06:08:57;9.25;;;5.35;;
40609;SDS011;26316;55.976;37.140;2022-08-20T06:11:22;8.93;;;5.30;;
40609;SDS011;26316;55.976;37.140;2022-08-20T06:13:50;10.60;;;5.53;;
40609;SDS011;26316;55.976;37.140;2022-08-20T06:16:16;13.73;;;5.47;;
40609;SDS011;26316;55.976;37.140;2022-08-20T06:18:44;8.93;;;4.90;;
40609;SDS011;26316;55.976;37.140;2022-08-20T06:21:20;13.63;;;5.20;;
40609;SDS011;26316;55.976;37.140;2022-08-20T06:23:45;18.55;;;5.75;;
40609;SDS011;26316;55.976;37.140;2022-08-20T06:26:11;13.48;;;5.10;;
40609;SDS011;26316;55.976;37.140;2022-08-20T06:28:37;15.15;;;4.78;;
40609;SDS011;26316;55.976;37.140;2022-08-20T06:31:03;14.18;;;5.00;;
40609;SDS011;26316;55.976;37.140;2022-08-20T06:33:28;14.23;;;4.93;;
40609;SDS011;26316;55.976;37.140;2022-08-20T06:35:54;9.80;;;4.70;;
40609;SDS011;26316;55.976;37.140;2022-08-20T06:38:20;11.05;;;4.30;;
40609;SDS011;26316;55.976;37.140;2022-08-20T06:40:46;11.90;;;4.68;;
40609;SDS011;26316;55.976;37.140;2022-08-20T06:43:12;9.27;;;4.75;;
40609;SDS011;26316;55.976;37.140;2022-08-20T06:45:39;8.35;;;4.30;;
40609;SDS011;26316;55.976;37.140;2022-08-20T06:48:06;8.10;;;4.45;;
40609;SDS011;26316;55.976;37.140;2022-08-20T06:50:38;9.65;;;4.60;;
40609;SDS011;26316;55.976;37.140;2022-08-20T06:53:10;13.82;;;4.88;;
40609;SDS011;26316;55.976;37.140;2022-08-20T06:55:40;13.90;;;4.57;;
40609;SDS011;26316;55.976;37.140;2022-08-20T07:00:36;8.82;;;4.53;;
40609;SDS011;26316;55.976;37.140;2022-08-20T07:03:03;7.97;;;4.10;;
40609;SDS011;26316;55.976;37.140;2022-08-20T07:05:30;7.75;;;4.13;;
40609;SDS011;26316;55.976;37.140;2022-08-20T07:07:58;14.13;;;4.32;;
40609;SDS011;26316;55.976;37.140;2022-08-20T07:10:25;8.88;;;4.75;;
40609;SDS011;26316;55.976;37.140;2022-08-20T07:12:51;8.93;;;4.40;;
40609;SDS011;26316;55.976;37.140;2022-08-20T07:15:18;10.82;;;4.25;;
40609;SDS011;26316;55.976;37.140;2022-08-20T07:17:49;12.82;;;4.70;;
40609;SDS011;26316;55.976;37.140;2022-08-20T07:20:23;7.55;;;4.28;;
40609;SDS011;26316;55.976;37.140;2022-08-20T07:22:49;7.03;;;4.32;;
40609;SDS011;26316;55.976;37.140;2022-08-20T07:25:16;15.98;;;4.45;;
40609;SDS011;26316;55.976;37.140;2022-08-20T07:27:43;12.70;;;3.92;;
40609;SDS011;26316;55.976;37.140;2022-08-20T07:30:11;15.30;;;3.90;;
40609;SDS011;26316;55.976;37.140;2022-08-20T07:32:58;6.88;;;4.40;;
40609;SDS011;26316;55.976;37.140;2022-08-20T07:35:24;8.73;;;4.10;;
40609;SDS011;26316;55.976;37.140;2022-08-20T07:37:50;10.32;;;3.97;;
40609;SDS011;26316;55.976;37.140;2022-08-20T07:40:17;6.90;;;3.60;;
40609;SDS011;26316;55.976;37.140;2022-08-20T07:42:45;7.40;;;4.20;;
40609;SDS011;26316;55.976;37.140;2022-08-20T07:45:13;9.43;;;3.72;;
40609;SDS011;26316;55.976;37.140;2022-08-20T07:47:41;9.65;;;3.80;;
40609;SDS011;26316;55.976;37.140;2022-08-20T07:50:08;11.57;;;4.00;;
40609;SDS011;26316;55.976;37.140;2022-08-20T07:52:35;8.88;;;3.40;;
40609;SDS011;26316;55.976;37.140;2022-08-20T07:55:06;9.48;;;3.38;;
40609;SDS011;26316;55.976;37.140;2022-08-20T07:57:36;18.20;;;4.20;;
40609;SDS011;26316;55.976;37.140;2022-08-20T08:00:03;7.28;;;3.22;;
40609;SDS011;26316;55.976;37.140;2022-08-20T08:02:34;10.05;;;3.95;;
40609;SDS011;26316;55.976;37.140;2022-08-20T08:05:01;12.98;;;3.92;;
40609;SDS011;26316;55.976;37.140;2022-08-20T08:07:29;12.05;;;5.55;;
40609;SDS011;26316;55.976;37.140;2022-08-20T08:09:54;8.25;;;5.40;;
40609;SDS011;26316;55.976;37.140;2022-08-20T08:12:21;5.82;;;5.28;;
40609;SDS011;26316;55.976;37.140;2022-08-20T08:14:47;12.18;;;4.82;;
40609;SDS011;26316;55.976;37.140;2022-08-20T08:17:14;8.10;;;4.97;;
40609;SDS011;26316;55.976;37.140;2022-08-20T08:19:47;9.27;;;4.03;;
40609;SDS011;26316;55.976;37.140;2022-08-20T08:22:15;12.77;;;3.97;;
40609;SDS011;26316;55.976;37.140;2022-08-20T08:24:42;7.45;;;3.75;;
40609;SDS011;26316;55.976;37.140;2022-08-20T08:27:12;6.72;;;3.30;;
40609;SDS011;26316;55.976;37.140;2022-08-20T08:29:38;6.93;;;3.15;;
40609;SDS011;26316;55.976;37.140;2022-08-20T08:32:05;6.20;;;2.85;;
40609;SDS011;26316;55.976;37.140;2022-08-20T08:34:32;13.50;;;3.63;;
40609;SDS011;26316;55.976;37.140;2022-08-20T08:37:04;6.75;;;3.42;;
40609;SDS011;26316;55.976;37.140;2022-08-20T08:39:30;6.28;;;2.80;;
40609;SDS011;26316;55.976;37.140;2022-08-20T08:41:59;6.03;;;2.78;;
40609;SDS011;26316;55.976;37.140;2022-08-20T08:44:29;8.18;;;3.08;;
40609;SDS011;26316;55.976;37.140;2022-08-20T08:47:00;4.85;;;2.92;;
40609;SDS011;26316;55.976;37.140;2022-08-20T08:49:32;10.68;;;2.85;;
40609;SDS011;26316;55.976;37.140;2022-08-20T08:52:03;4.80;;;2.80;;
40609;SDS011;26316;55.976;37.140;2022-08-20T08:54:32;7.88;;;2.85;;
40609;SDS011;26316;55.976;37.140;2022-08-20T08:56:59;6.70;;;3.03;;
40609;SDS011;26316;55.976;37.140;2022-08-20T08:59:29;8.50;;;3.17;;
40609;SDS011;26316;55.976;37.140;2022-08-20T09:01:56;4.75;;;2.60;;
40609;SDS011;26316;55.976;37.140;2022-08-20T09:04:28;6.70;;;2.70;;
40609;SDS011;26316;55.976;37.140;2022-08-20T09:07:00;10.43;;;3.15;;
40609;SDS011;26316;55.976;37.140;2022-08-20T09:09:29;13.70;;;2.70;;
40609;SDS011;26316;55.976;37.140;2022-08-20T09:12:01;11.50;;;3.25;;
40609;SDS011;26316;55.976;37.140;2022-08-20T09:14:34;4.88;;;2.63;;
40609;SDS011;26316;55.976;37.140;2022-08-20T09:17:00;6.97;;;2.83;;
40609;SDS011;26316;55.976;37.140;2022-08-20T09:19:26;9.68;;;2.80;;
40609;SDS011;26316;55.976;37.140;2022-08-20T09:21:52;9.95;;;2.50;;
40609;SDS011;26316;55.976;37.140;2022-08-20T09:24:18;13.15;;;2.72;;
40609;SDS011;26316;55.976;37.140;2022-08-20T09:26:46;8.02;;;2.75;;
40609;SDS011;26316;55.976;37.140;2022-08-20T09:29:12;7.30;;;2.75;;
40609;SDS011;26316;55.976;37.140;2022-08-20T09:31:38;12.13;;;2.95;;
40609;SDS011;26316;55.976;37.140;2022-08-20T09:34:07;4.47;;;2.92;;
40609;SDS011;26316;55.976;37.140;2022-08-20T09:36:32;6.60;;;2.80;;
40609;SDS011;26316;55.976;37.140;2022-08-20T09:38:59;8.45;;;3.20;;
40609;SDS011;26316;55.976;37.140;2022-08-20T09:41:26;9.55;;;3.42;;
40609;SDS011;26316;55.976;37.140;2022-08-20T09:43:52;10.10;;;3.33;;
40609;SDS011;26316;55.976;37.140;2022-08-20T09:46:18;12.70;;;3.15;;
40609;SDS011;26316;55.976;37.140;2022-08-20T09:48:44;8.38;;;3.25;;
40609;SDS011;26316;55.976;37.140;2022-08-20T09:51:10;13.57;;;3.40;;
40609;SDS011;26316;55.976;37.140;2022-08-20T09:53:35;9.77;;;3.72;;
40609;SDS011;26316;55.976;37.140;2022-08-20T09:56:01;3.88;;;2.67;;
40609;SDS011;26316;55.976;37.140;2022-08-20T09:58:35;9.85;;;3.10;;
40609;SDS011;26316;55.976;37.140;2022-08-20T10:01:11;10.63;;;3.03;;
40609;SDS011;26316;55.976;37.140;2022-08-20T10:03:39;11.10;;;3.78;;
40609;SDS011;26316;55.976;37.140;2022-08-20T10:06:06;6.47;;;2.88;;
40609;SDS011;26316;55.976;37.140;2022-08-20T10:08:31;10.10;;;3.55;;
40609;SDS011;26316;55.976;37.140;2022-08-20T10:10:57;8.25;;;3.40;;
40609;SDS011;26316;55.976;37.140;2022-08-20T10:13:23;5.38;;;3.65;;
40609;SDS011;26316;55.976;37.140;2022-08-20T10:15:49;6.00;;;3.50;;
40609;SDS011;26316;55.976;37.140;2022-08-20T10:18:15;11.68;;;3.75;;
40609;SDS011;26316;55.976;37.140;2022-08-20T10:20:40;7.93;;;3.50;;
40609;SDS011;26316;55.976;37.140;2022-08-20T10:23:07;13.65;;;3.70;;
40609;SDS011;26316;55.976;37.140;2022-08-20T10:25:32;9.65;;;3.42;;
40609;SDS011;26316;55.976;37.140;2022-08-20T10:27:58;11.25;;;3.75;;
40609;SDS011;26316;55.976;37.140;2022-08-20T10:30:24;10.52;;;3.33;;
40609;SDS011;26316;55.976;37.140;2022-08-20T10:32:50;7.05;;;3.55;;
40609;SDS011;26316;55.976;37.140;2022-08-20T10:35:16;12.85;;;4.13;;
40609;SDS011;26316;55.976;37.140;2022-08-20T10:37:42;14.45;;;3.83;;
40609;SDS011;26316;55.976;37.140;2022-08-20T10:40:09;16.02;;;5.03;;
40609;SDS011;26316;55.976;37.140;2022-08-20T10:42:36;14.88;;;4.35;;
40609;SDS011;26316;55.976;37.140;2022-08-20T10:45:02;8.35;;;3.97;;
40609;SDS011;26316;55.976;37.140;2022-08-20T10:47:30;7.80;;;4.28;;
40609;SDS011;26316;55.976;37.140;2022-08-20T10:49:58;7.97;;;4.10;;
40609;SDS011;26316;55.976;37.140;2022-08-20T10:52:25;12.18;;;4.90;;
40609;SDS011;26316;55.976;37.140;2022-08-20T10:54:52;14.88;;;5.18;;
40609;SDS011;26316;55.976;37.140;2022-08-20T10:57:20;16.25;;;5.60;;
40609;SDS011;26316;55.976;37.140;2022-08-20T10:59:48;10.87;;;5.40;;
40609;SDS011;26316;55.976;37.140;2022-08-20T11:02:14;7.75;;;5.15;;
40609;SDS011;26316;55.976;37.140;2022-08-20T11:04:40;15.20;;;5.32;;
40609;SDS011;26316;55.976;37.140;2022-08-20T11:07:10;11.68;;;5.55;;
40609;SDS011;26316;55.976;37.140;2022-08-20T11:09:39;8.38;;;4.72;;
40609;SDS011;26316;55.976;37.140;2022-08-20T11:12:05;10.07;;;5.07;;
40609;SDS011;26316;55.976;37.140;2022-08-20T11:14:31;15.38;;;4.97;;
40609;SDS011;26316;55.976;37.140;2022-08-20T11:16:58;13.48;;;5.38;;
40609;SDS011;26316;55.976;37.140;2022-08-20T11:19:27;7.38;;;5.68;;
40609;SDS011;26316;55.976;37.140;2022-08-20T11:21:53;8.32;;;5.00;;
40609;SDS011;26316;55.976;37.140;2022-08-20T11:24:19;12.88;;;5.30;;
40609;SDS011;26316;55.976;37.140;2022-08-20T11:26:47;7.30;;;4.60;;
40609;SDS011;26316;55.976;37.140;2022-08-20T11:29:13;7.75;;;5.10;;
40609;SDS011;26316;55.976;37.140;2022-08-20T11:31:39;9.18;;;5.45;;
40609;SDS011;26316;55.976;37.140;2022-08-20T11:34:08;13.65;;;5.35;;
40609;SDS011;26316;55.976;37.140;2022-08-20T11:36:43;9.20;;;4.57;;
40609;SDS011;26316;55.976;37.140;2022-08-20T11:39:10;11.27;;;5.15;;
40609;SDS011;26316;55.976;37.140;2022-08-20T11:41:36;7.68;;;4.32;;
40609;SDS011;26316;55.976;37.140;2022-08-20T11:44:01;10.35;;;4.90;;
40609;SDS011;26316;55.976;37.140;2022-08-20T11:46:27;11.77;;;5.70;;
40609;SDS011;26316;55.976;37.140;2022-08-20T11:48:53;13.75;;;4.65;;
40609;SDS011;26316;55.976;37.140;2022-08-20T11:51:19;8.65;;;4.90;;
40609;SDS011;26316;55.976;37.140;2022-08-20T11:53:45;12.32;;;4.40;;
40609;SDS011;26316;55.976;37.140;2022-08-20T11:56:10;9.40;;;4.82;;
40609;SDS011;26316;55.976;37.140;2022-08-20T11:58:39;12.55;;;5.45;;
40609;SDS011;26316;55.976;37.140;2022-08-20T12:01:05;8.77;;;4.28;;
40609;SDS011;26316;55.976;37.140;2022-08-20T12:03:31;8.10;;;4.57;;
40609;SDS011;26316;55.976;37.140;2022-08-20T12:05:57;7.43;;;4.47;;
40609;SDS011;26316;55.976;37.140;2022-08-20T12:08:23;7.90;;;4.28;;
40609;SDS011;26316;55.976;37.140;2022-08-20T12:10:48;11.35;;;4.47;;
40609;SDS011;26316;55.976;37.140;2022-08-20T12:13:14;5.15;;;4.50;;
40609;SDS011;26316;55.976;37.140;2022-08-20T12:15:42;7.53;;;4.20;;
40609;SDS011;26316;55.976;37.140;2022-08-20T12:18:08;6.47;;;4.65;;
40609;SDS011;26316;55.976;37.140;2022-08-20T12:20:35;11.32;;;4.45;;
40609;SDS011;26316;55.976;37.140;2022-08-20T12:23:01;12.85;;;4.55;;
40609;SDS011;26316;55.976;37.140;2022-08-20T12:25:27;9.18;;;4.57;;
40609;SDS011;26316;55.976;37.140;2022-08-20T12:27:53;10.10;;;4.55;;
40609;SDS011;26316;55.976;37.140;2022-08-20T12:30:20;8.15;;;3.95;;
40609;SDS011;26316;55.976;37.140;2022-08-20T12:32:48;5.78;;;4.50;;
40609;SDS011;26316;55.976;37.140;2022-08-20T12:35:15;4.32;;;3.78;;
40609;SDS011;26316;55.976;37.140;2022-08-20T12:37:42;7.32;;;4.03;;
40609;SDS011;26316;55.976;37.140;2022-08-20T12:40:11;8.82;;;3.85;;
40609;SDS011;26316;55.976;37.140;2022-08-20T12:42:42;5.20;;;3.80;;
40609;SDS011;26316;55.976;37.140;2022-08-20T12:45:08;14.18;;;4.03;;
40609;SDS011;26316;55.976;37.140;2022-08-20T12:47:35;4.63;;;3.22;;
40609;SDS011;26316;55.976;37.140;2022-08-20T12:50:07;6.57;;;3.90;;
40609;SDS011;26316;55.976;37.140;2022-08-20T12:52:33;5.60;;;3.35;;
40609;SDS011;26316;55.976;37.140;2022-08-20T12:54:59;7.72;;;3.53;;
40609;SDS011;26316;55.976;37.140;2022-08-20T12:57:32;7.10;;;3.63;;
40609;SDS011;26316;55.976;37.140;2022-08-20T13:00:24;10.00;;;3.50;;
40609;SDS011;26316;55.976;37.140;2022-08-20T13:02:51;5.63;;;3.25;;
40609;SDS011;26316;55.976;37.140;2022-08-20T13:05:17;5.68;;;2.80;;
40609;SDS011;26316;55.976;37.140;2022-08-20T13:07:44;7.75;;;3.30;;
40609;SDS011;26316;55.976;37.140;2022-08-20T13:10:13;6.38;;;3.30;;
40609;SDS011;26316;55.976;37.140;2022-08-20T13:12:45;4.88;;;3.03;;
40609;SDS011;26316;55.976;37.140;2022-08-20T13:15:11;6.97;;;3.10;;
40609;SDS011;26316;55.976;37.140;2022-08-20T13:17:37;4.97;;;3.30;;
40609;SDS011;26316;55.976;37.140;2022-08-20T13:20:04;4.22;;;3.00;;
40609;SDS011;26316;55.976;37.140;2022-08-20T13:22:33;7.22;;;2.83;;
40609;SDS011;26316;55.976;37.140;2022-08-20T13:24:59;5.03;;;2.80;;
40609;SDS011;26316;55.976;37.140;2022-08-20T13:27:25;6.30;;;3.35;;
40609;SDS011;26316;55.976;37.140;2022-08-20T13:29:53;4.22;;;2.60;;
40609;SDS011;26316;55.976;37.140;2022-08-20T13:32:19;3.13;;;2.75;;
40609;SDS011;26316;55.976;37.140;2022-08-20T13:34:46;10.13;;;3.20;;
40609;SDS011;26316;55.976;37.140;2022-08-20T13:37:20;4.00;;;2.75;;
40609;SDS011;26316;55.976;37.140;2022-08-20T13:39:49;8.45;;;3.20;;
40609;SDS011;26316;55.976;37.140;2022-08-20T13:42:15;4.40;;;2.97;;
40609;SDS011;26316;55.976;37.140;2022-08-20T13:44:44;5.68;;;2.88;;
40609;SDS011;26316;55.976;37.140;2022-08-20T13:47:17;6.10;;;2.70;;
40609;SDS011;26316;55.976;37.140;2022-08-20T13:49:45;14.38;;;3.20;;
40609;SDS011;26316;55.976;37.140;2022-08-20T13:52:12;4.13;;;2.53;;
40609;SDS011;26316;55.976;37.140;2022-08-20T13:54:41;3.35;;;2.85;;
40609;SDS011;26316;55.976;37.140;2022-08-20T13:57:14;8.77;;;3.45;;
40609;SDS011;26316;55.976;37.140;2022-08-20T13:59:42;6.93;;;3.17;;
40609;SDS011;26316;55.976;37.140;2022-08-20T14:02:10;8.25;;;3.17;;
40609;SDS011;26316;55.976;37.140;2022-08-20T14:07:09;8.35;;;3.25;;
40609;SDS011;26316;55.976;37.140;2022-08-20T14:09:38;7.53;;;2.97;;
40609;SDS011;26316;55.976;37.140;2022-08-20T14:12:08;8.95;;;3.20;;
40609;SDS011;26316;55.976;37.140;2022-08-20T14:14:34;10.57;;;3.47;;
40609;SDS011;26316;55.976;37.140;2022-08-20T14:18:01;6.13;;;3.40;;
40609;SDS011;26316;55.976;37.140;2022-08-20T14:20:01;8.93;;;3.60;;
40609;SDS011;26316;55.976;37.140;2022-08-20T14:22:37;10.85;;;3.45;;
40609;SDS011;26316;55.976;37.140;2022-08-20T14:25:07;5.13;;;3.75;;
40609;SDS011;26316;55.976;37.140;2022-08-20T14:27:38;6.47;;;3.60;;
40609;SDS011;26316;55.976;37.140;2022-08-20T14:30:08;9.18;;;4.05;;
40609;SDS011;26316;55.976;37.140;2022-08-20T14:32:37;9.90;;;3.67;;
40609;SDS011;26316;55.976;37.140;2022-08-20T14:35:04;9.25;;;4.18;;
40609;SDS011;26316;55.976;37.140;2022-08-20T14:37:32;9.27;;;4.10;;
40609;SDS011;26316;55.976;37.140;2022-08-20T14:40:00;9.63;;;3.70;;
40609;SDS011;26316;55.976;37.140;2022-08-20T14:42:28;11.25;;;4.22;;
40609;SDS011;26316;55.976;37.140;2022-08-20T14:44:55;7.88;;;4.55;;
40609;SDS011;26316;55.976;37.140;2022-08-20T14:47:24;9.35;;;4.50;;
40609;SDS011;26316;55.976;37.140;2022-08-20T14:49:52;10.85;;;4.43;;